EW1119 Palm Beach FL US current weather conditions

sailwx.info

Wind from 266 at 1 knots gusting 5

Air temperature 29.4° C
Dewpoint 25.4° C

Last reported at 2020-Jul-10 04:00 UTC.
Time now 2020-Jul-10 04:28 UTC

Location: N 26°38' W 080°02'.
View on Google Maps.

See reports from other nearby stations

  
Tides and Currents Weather Stations Pressure Air Temp Water Temp Dewpoint Dewpoint Depression Visibility Wind Speed Wind Dir Waves Ship Positions
date/time (UTC)wind fromknots sea level pressurealtimeterstation pressurevisibilityair tempwater tempwave heightnotes
2020-Jul-10 04:00 266 1 gusting 5 29.4
2020-Jul-10 03:45 290 2 gusting 6 29.4
2020-Jul-10 03:30 339 2 gusting 6 29.4
2020-Jul-10 03:16 252 2 gusting 6 29.4
2020-Jul-10 03:00 233 3 gusting 9 29.4
2020-Jul-10 02:45 226 4 gusting 9 29.4
2020-Jul-10 02:30 196 4 gusting 11 29.4
2020-Jul-10 02:15 195 6 gusting 11 29.4
2020-Jul-10 02:00 162 5 gusting 13 29.4
2020-Jul-10 01:46 201 6 gusting 16 29.4
2020-Jul-10 01:30 206 5 gusting 11 29.4
2020-Jul-10 01:15 217 6 gusting 12 29.4
2020-Jul-10 01:00 148 6 gusting 12 29.4
2020-Jul-10 00:45 217 6 gusting 13 29.4
2020-Jul-10 00:30 154 6 gusting 16 29.4
2020-Jul-10 00:15 199 6 gusting 14 29.4
2020-Jul-10 00:01 210 9 gusting 14 30.0
2020-Jul-09 23:46 212 9 gusting 15 30.0
2020-Jul-09 23:30 199 10 gusting 16 30.6
2020-Jul-09 23:15 160 7 gusting 15 30.6
2020-Jul-09 23:00 196 6 gusting 13 30.6
2020-Jul-09 22:45 197 7 gusting 13 30.6
2020-Jul-09 22:30 207 7 gusting 13 30.6
2020-Jul-09 22:15 223 6 gusting 11 31.1
2020-Jul-09 22:00 214 6 gusting 9 31.1
2020-Jul-09 21:45 203 6 gusting 10 31.1
2020-Jul-09 21:30 182 6 gusting 11 31.7
2020-Jul-09 21:15 149 6 gusting 9 31.1
2020-Jul-09 21:00 168 6 gusting 10 31.1
2020-Jul-09 20:45 153 6 gusting 9 31.7
2020-Jul-09 20:30 156 6 gusting 9 31.1
2020-Jul-09 20:15 147 6 gusting 10 31.7
2020-Jul-09 19:46 132 4 gusting 8 32.8
2020-Jul-09 19:31 153 1 gusting 4 35.6
2020-Jul-09 19:16 216 1 gusting 7 34.4
2020-Jul-09 19:00 270 1 gusting 7 34.4
2020-Jul-09 18:46 280 1 gusting 8 35.0
2020-Jul-09 18:31 044 2 gusting 8 34.4
2020-Jul-09 18:16 316 1 gusting 5 34.4
2020-Jul-09 18:01 340 4 gusting 8 34.4
2020-Jul-09 17:46 259 1 gusting 6 34.4
2020-Jul-09 17:31 243 2 gusting 8 33.3
2020-Jul-09 17:16 322 5 gusting 8 33.3
2020-Jul-09 17:02 011 1 gusting 6 33.3
2020-Jul-09 16:47 265 1 gusting 7 33.3
2020-Jul-09 16:32 299 3 gusting 6 32.8
2020-Jul-09 16:16 286 3 gusting 5 32.8
2020-Jul-09 16:01 287 2 gusting 6 32.2
2020-Jul-09 15:47 295 4 gusting 7 32.2
2020-Jul-09 15:32 349 0 gusting 6 32.2
2020-Jul-09 15:16 330 4 gusting 6 31.7
2020-Jul-09 15:00 286 2 gusting 6 31.1
2020-Jul-09 14:46 302 2 gusting 6 30.6
2020-Jul-09 14:31 314 3 gusting 7 30.6
2020-Jul-09 14:16 332 1 gusting 5 30.0
2020-Jul-09 14:01 036 4 gusting 7 29.4
2020-Jul-09 13:45 294 5 gusting 7 28.9
2020-Jul-09 13:30 338 2 gusting 6 28.9
2020-Jul-09 13:16 343 3 gusting 9 28.9
2020-Jul-09 13:00 022 4 gusting 9 28.3
2020-Jul-09 12:45 330 1 gusting 5 28.3
2020-Jul-09 12:30 314 2 gusting 5 27.8
2020-Jul-09 12:15 337 2 gusting 6 27.8
2020-Jul-09 12:00 308 2 gusting 5 26.7
2020-Jul-09 11:46 349 1 gusting 4 26.7
2020-Jul-09 11:30 302 0 gusting 3 26.1
2020-Jul-09 11:16 283 0 gusting 3 26.1
2020-Jul-09 11:00 267 0 gusting 2 26.7
2020-Jul-09 10:45 353 1 gusting 3 26.7
2020-Jul-09 10:30 286 0 gusting 2 26.7
2020-Jul-09 10:15 311 1 gusting 3 26.7
2020-Jul-09 10:00 290 1 gusting 3 26.7
2020-Jul-09 09:45 271 0 gusting 2 26.7
2020-Jul-09 09:30 280 0 gusting 3 27.2
2020-Jul-09 09:15 315 1 gusting 3 27.2
2020-Jul-09 09:00 327 0 gusting 2 27.2
2020-Jul-09 08:46 278 0 gusting 3 27.2
2020-Jul-09 08:30 293 0 gusting 3 27.2
2020-Jul-09 08:15 290 0 gusting 3 27.2
2020-Jul-09 08:00 266 0 gusting 4 27.2
2020-Jul-09 07:45 262 1 gusting 4 27.8
2020-Jul-09 07:30 269 1 gusting 3 27.8
2020-Jul-09 07:15 257 1 gusting 4 27.8
2020-Jul-09 07:00 250 1 gusting 4 27.8
2020-Jul-09 06:46 281 1 gusting 4 28.3
2020-Jul-09 06:32 258 1 gusting 3 28.3
2020-Jul-09 06:16 274 0 gusting 3 28.3
2020-Jul-09 06:01 282 0 gusting 2 28.3
2020-Jul-09 05:46 238 1 gusting 3 28.3
2020-Jul-09 05:31 249 0 gusting 2 28.3
2020-Jul-09 05:16 286 0 gusting 4 28.3
2020-Jul-09 05:01 285 1 gusting 4 28.9
2020-Jul-09 04:47 270 1 gusting 5 28.9
2020-Jul-09 04:31 301 1 gusting 2 28.9
2020-Jul-09 04:16 264 0 gusting 3 28.9
2020-Jul-09 04:00 217 1 gusting 4 28.9
2020-Jul-09 03:45 244 0 gusting 3 28.9
2020-Jul-09 03:30 220 28.3
2020-Jul-09 03:15 214 28.3
2020-Jul-09 03:00 188 28.3
2020-Jul-09 02:45 188 28.3
2020-Jul-09 02:30 154 28.9
2020-Jul-09 02:15 321 29.4
2020-Jul-09 02:00 323 29.4
2020-Jul-09 01:45 356 28.9
2020-Jul-09 01:30 049 28.9
2020-Jul-09 01:15 103 28.9
2020-Jul-09 00:46 001 4 gusting 15 28.3
2020-Jul-09 00:30 036 6 gusting 14 29.4
2020-Jul-09 00:15 249 2 gusting 6 30.0
2020-Jul-08 23:45 259 5 gusting 9 30.6
2020-Jul-08 23:30 277 5 gusting 11 31.1
2020-Jul-08 23:15 253 3 gusting 12 31.1
2020-Jul-08 22:45 168 3 gusting 15 31.1
2020-Jul-08 22:30 168 8 gusting 13 32.2
2020-Jul-08 22:15 239 6 gusting 11 32.2
2020-Jul-08 21:45 198 6 gusting 12 32.2
2020-Jul-08 21:30 186 7 gusting 13 31.7
2020-Jul-08 21:15 130 12 gusting 16 31.1
2020-Jul-08 20:45 200 11 gusting 16 31.1
2020-Jul-08 20:30 162 8 gusting 14 31.7
2020-Jul-08 20:15 184 7 gusting 13 31.7
2020-Jul-08 19:45 169 5 gusting 9 32.2
2020-Jul-08 19:30 206 5 gusting 10 31.7
2020-Jul-08 19:15 163 6 gusting 11 31.1
2020-Jul-08 18:46 215 5 gusting 13 31.1
2020-Jul-08 18:31 219 5 gusting 10 31.7
2020-Jul-08 18:17 226 6 gusting 10 31.7
2020-Jul-08 17:46 162 5 gusting 9 31.7
2020-Jul-08 17:32 182 3 gusting 6 32.2
2020-Jul-08 17:17 156 4 gusting 6 32.2
2020-Jul-08 16:46 147 4 gusting 7 31.7
2020-Jul-08 16:31 127 4 gusting 6 31.7
2020-Jul-08 16:16 174 4 gusting 6 31.7
2020-Jul-08 15:46 153 3 gusting 6 31.7
2020-Jul-08 15:30 150 3 gusting 5 32.2
2020-Jul-08 15:16 135 3 gusting 5 31.7
2020-Jul-08 14:46 220 3 gusting 6 31.7
2020-Jul-08 14:30 168 1 gusting 6 31.7
2020-Jul-08 14:16 180 3 gusting 6 31.1
2020-Jul-08 13:46 164 1 gusting 4 31.1
2020-Jul-08 13:30 229 2 gusting 5 30.6
2020-Jul-08 13:16 167 0 gusting 4 30.6
2020-Jul-08 12:46 231 29.4
2020-Jul-08 12:31 228 0 gusting 2 28.9
2020-Jul-08 12:15 216 28.3
2020-Jul-08 11:45 297 27.8
2020-Jul-08 11:30 302 0 gusting 1 27.2
2020-Jul-08 11:16 296 27.2
2020-Jul-08 10:45 275 26.7
2020-Jul-08 10:30 274 0 gusting 0 26.7
2020-Jul-08 10:15 273 0 gusting 1 26.7
2020-Jul-08 09:45 319 0 gusting 1 26.7
2020-Jul-08 09:30 301 26.7
2020-Jul-08 09:15 315 26.7
2020-Jul-08 08:45 334 27.2
2020-Jul-08 08:30 331 26.7
2020-Jul-08 08:15 343 27.2
2020-Jul-08 07:45 327 27.2
2020-Jul-08 07:30 335 0 gusting 0 27.2
2020-Jul-08 07:15 335 27.2
2020-Jul-08 06:45 321 0 gusting 1 27.2
2020-Jul-08 06:30 320 0 gusting 1 27.2
2020-Jul-08 06:16 335 0 gusting 2 27.2
2020-Jul-08 06:01 073 27.8
2020-Jul-08 05:47 026 0 gusting 1 27.2
2020-Jul-08 05:31 001 27.2
2020-Jul-08 05:16 051 27.2
2020-Jul-08 05:01 345 27.2
2020-Jul-08 04:46 035 27.2
2020-Jul-08 04:31 331 0 gusting 4 27.2
2020-Jul-08 04:17 311 0 gusting 1 27.2
2020-Jul-08 04:01 293 27.2